createdAt,value
2018-09-13T00:00:50.732Z,13.10
2018-09-13T00:02:53.917Z,13.00
2018-09-13T00:04:57.386Z,13.00
2018-09-13T00:07:00.590Z,13.00
2018-09-13T00:09:05.102Z,13.00
2018-09-13T00:11:08.484Z,13.00
2018-09-13T00:13:11.660Z,12.90
2018-09-13T00:15:14.859Z,12.90
2018-09-13T00:17:18.076Z,12.90
2018-09-13T00:19:21.931Z,12.90
2018-09-13T00:21:25.108Z,12.90
2018-09-13T00:23:28.588Z,12.90
2018-09-13T00:25:32.005Z,12.90
2018-09-13T00:27:35.188Z,12.90
2018-09-13T00:29:38.644Z,12.90
2018-09-13T00:31:41.899Z,13.00
2018-09-13T00:33:45.268Z,13.00
2018-09-13T00:35:48.455Z,13.10
2018-09-13T00:37:51.636Z,13.10
2018-09-13T00:39:55.145Z,13.10
2018-09-13T00:41:58.541Z,13.10
2018-09-13T00:44:01.754Z,13.10
2018-09-13T00:46:05.469Z,13.10
2018-09-13T00:48:09.480Z,13.10
2018-09-13T00:50:14.174Z,13.00
2018-09-13T00:52:17.337Z,13.10
2018-09-13T00:54:20.860Z,13.00
2018-09-13T00:56:24.026Z,13.00
2018-09-13T00:58:27.220Z,13.00
2018-09-13T01:00:30.660Z,13.00
2018-09-13T01:02:33.828Z,13.00
2018-09-13T01:04:37.020Z,12.90
2018-09-13T01:06:40.524Z,12.90
2018-09-13T01:08:43.841Z,12.90
2018-09-13T01:10:47.262Z,12.80
2018-09-13T01:12:50.704Z,12.80
2018-09-13T01:14:54.544Z,12.70
2018-09-13T01:16:57.734Z,12.80
2018-09-13T01:19:01.616Z,12.80
2018-09-13T01:21:04.843Z,12.80
2018-09-13T01:23:08.008Z,12.90
2018-09-13T01:25:11.801Z,12.80
2018-09-13T01:27:14.976Z,12.80
2018-09-13T01:29:18.160Z,12.70
2018-09-13T01:31:21.365Z,12.80
2018-09-13T01:33:24.548Z,12.70
2018-09-13T01:35:27.721Z,12.70
2018-09-13T01:37:31.240Z,12.70
2018-09-13T01:39:34.420Z,12.60
2018-09-13T01:41:38.228Z,12.70
2018-09-13T01:43:41.653Z,12.70
2018-09-13T01:45:44.845Z,12.70
2018-09-13T01:47:48.046Z,12.70
2018-09-13T01:49:51.228Z,12.70
2018-09-13T01:51:54.407Z,12.70
2018-09-13T01:53:57.587Z,12.60
2018-09-13T01:56:00.781Z,12.60
2018-09-13T01:58:05.315Z,12.60
2018-09-13T02:00:08.825Z,12.60
2018-09-13T02:02:12.337Z,12.60
2018-09-13T02:04:15.512Z,12.60
2018-09-13T02:06:18.768Z,12.60
2018-09-13T02:08:21.970Z,12.60
2018-09-13T02:30:02.369Z,12.20
2018-09-13T02:32:05.561Z,12.20
2018-09-13T02:34:08.731Z,12.30
2018-09-13T02:36:11.935Z,12.30
2018-09-13T02:38:15.104Z,12.30
2018-09-13T02:40:18.286Z,12.30
2018-09-13T02:42:21.508Z,12.40
2018-09-13T02:44:24.708Z,12.40
2018-09-13T02:46:27.875Z,12.40
2018-09-13T02:48:31.369Z,12.40
2018-09-13T02:50:34.549Z,12.50
2018-09-13T02:52:37.794Z,12.50
2018-09-13T02:54:40.995Z,12.60
2018-09-13T02:56:44.297Z,12.60
2018-09-13T02:58:47.559Z,12.60
2018-09-13T03:00:51.500Z,12.60
2018-09-13T03:02:54.946Z,12.60
2018-09-13T03:04:58.236Z,12.60
2018-09-13T03:07:01.426Z,12.60
2018-09-13T03:09:07.760Z,12.70
2018-09-13T03:11:10.947Z,12.70
2018-09-13T03:13:14.152Z,12.60
2018-09-13T03:15:17.324Z,12.60
2018-09-13T03:17:20.548Z,12.60
2018-09-13T03:19:23.736Z,12.60
2018-09-13T03:21:27.943Z,12.60
2018-09-13T03:23:37.709Z,12.60
2018-09-13T03:25:40.929Z,12.60
2018-09-13T03:27:44.431Z,12.70
2018-09-13T03:29:47.656Z,12.60
2018-09-13T03:31:50.848Z,12.70
2018-09-13T03:33:54.056Z,12.60
2018-09-13T03:35:57.564Z,12.60
2018-09-13T03:38:00.796Z,12.60
2018-09-13T03:40:04.373Z,12.60
2018-09-13T03:42:07.797Z,12.60
2018-09-13T03:44:11.056Z,12.60
2018-09-13T03:46:14.227Z,12.50
2018-09-13T03:48:17.416Z,12.50
2018-09-13T03:50:20.685Z,12.40
2018-09-13T03:52:23.872Z,12.50
2018-09-13T03:54:27.084Z,12.40
2018-09-13T03:56:30.455Z,12.40
2018-09-13T03:58:33.641Z,12.30
2018-09-13T04:00:36.852Z,12.30
2018-09-13T04:02:40.016Z,12.30
2018-09-13T04:04:43.544Z,12.30
2018-09-13T04:06:47.040Z,12.20
2018-09-13T04:08:50.231Z,12.20
2018-09-13T04:10:53.458Z,12.00
2018-09-13T04:12:57.024Z,11.80
2018-09-13T04:15:00.223Z,11.80
2018-09-13T04:17:03.720Z,11.90
2018-09-13T04:19:06.909Z,12.00
2018-09-13T04:21:10.102Z,12.00
2018-09-13T04:23:13.875Z,12.10
2018-09-13T04:25:17.112Z,12.00
2018-09-13T04:27:20.288Z,11.90
2018-09-13T04:29:23.744Z,11.90
2018-09-13T04:31:27.008Z,11.90
2018-09-13T04:33:30.365Z,11.90
2018-09-13T04:35:33.677Z,11.90
2018-09-13T04:37:36.995Z,11.90
2018-09-13T04:39:40.172Z,11.70
2018-09-13T04:41:43.383Z,11.70
2018-09-13T04:43:46.795Z,11.60
2018-09-13T04:45:50.128Z,11.50
2018-09-13T04:47:53.316Z,11.50
2018-09-13T04:49:56.524Z,11.60
2018-09-13T04:51:59.696Z,11.60
2018-09-13T04:54:02.909Z,11.60
2018-09-13T04:56:06.528Z,11.50
2018-09-13T04:58:09.908Z,11.60
2018-09-13T05:00:13.489Z,11.60
2018-09-13T05:02:16.865Z,11.50
2018-09-13T05:04:20.059Z,11.50
2018-09-13T05:06:23.222Z,11.40
2018-09-13T05:08:26.396Z,11.50
2018-09-13T05:10:29.957Z,11.50
2018-09-13T05:12:33.224Z,11.40
2018-09-13T05:14:36.444Z,11.30
2018-09-13T05:16:39.952Z,11.30
2018-09-13T05:18:43.135Z,11.40
2018-09-13T05:20:46.319Z,11.50
2018-09-13T05:22:49.704Z,11.50
2018-09-13T05:24:52.889Z,11.50
2018-09-13T05:26:56.092Z,11.50
2018-09-13T05:28:59.571Z,11.50
2018-09-13T05:31:02.728Z,11.40
2018-09-13T05:33:06.476Z,11.30
2018-09-13T05:35:10.068Z,11.30
2018-09-13T05:37:13.241Z,11.30
2018-09-13T05:39:16.434Z,11.40
2018-09-13T05:41:19.816Z,11.50
2018-09-13T05:43:23.344Z,11.50
2018-09-13T05:45:26.546Z,11.40
2018-09-13T05:47:29.810Z,11.60
2018-09-13T05:49:32.992Z,11.60
2018-09-13T05:51:36.201Z,11.60
2018-09-13T05:53:40.068Z,11.70
2018-09-13T05:55:43.330Z,11.90
2018-09-13T05:57:46.517Z,12.00
2018-09-13T05:59:49.744Z,12.00
2018-09-13T06:01:52.932Z,12.00
2018-09-13T06:03:56.136Z,12.10
2018-09-13T06:05:59.328Z,12.20
2018-09-13T06:08:03.125Z,12.20
2018-09-13T06:10:06.788Z,12.30
2018-09-13T06:12:10.004Z,12.30
2018-09-13T06:14:13.192Z,12.40
2018-09-13T06:16:16.440Z,12.50
2018-09-13T06:18:19.656Z,12.50
2018-09-13T06:20:22.833Z,12.60
2018-09-13T06:22:26.183Z,12.60
2018-09-13T06:24:29.369Z,12.70
2018-09-13T06:26:33.219Z,12.70
2018-09-13T06:28:36.426Z,12.80
2018-09-13T06:30:39.620Z,12.80
2018-09-13T06:32:42.809Z,12.80
2018-09-13T06:34:45.984Z,12.90
2018-09-13T06:36:49.200Z,12.90
2018-09-13T06:38:52.392Z,13.00
2018-09-13T06:40:55.587Z,13.00
2018-09-13T06:42:59.264Z,13.10
2018-09-13T06:45:02.453Z,13.20
2018-09-13T06:47:06.128Z,13.20
2018-09-13T06:49:09.324Z,13.20
2018-09-13T06:51:12.588Z,13.30
2018-09-13T06:53:16.097Z,13.30
2018-09-13T06:55:19.566Z,13.40
2018-09-13T06:57:22.724Z,13.40
2018-09-13T06:59:25.953Z,13.50
2018-09-13T07:01:29.204Z,13.50
2018-09-13T07:03:32.467Z,13.60
2018-09-13T07:05:35.939Z,13.60
2018-09-13T07:07:39.112Z,13.70
2018-09-13T07:09:42.329Z,13.80
2018-09-13T07:11:45.841Z,13.80
2018-09-13T07:13:49.376Z,13.80
2018-09-13T07:15:53.060Z,13.90
2018-09-13T07:17:56.269Z,13.90
2018-09-13T07:19:59.456Z,14.00
2018-09-13T07:22:02.713Z,14.00
2018-09-13T07:24:05.898Z,14.10
2018-09-13T07:26:09.072Z,14.20
2018-09-13T07:28:12.443Z,14.20
2018-09-13T07:30:15.640Z,14.30
2018-09-13T07:32:18.821Z,14.30
2018-09-13T07:34:22.042Z,14.40
2018-09-13T07:36:25.212Z,14.50
2018-09-13T07:38:28.557Z,14.50
2018-09-13T07:40:31.847Z,14.60
2018-09-13T07:42:35.090Z,14.60
2018-09-13T07:44:38.452Z,14.70
2018-09-13T07:46:41.972Z,14.70
2018-09-13T07:48:45.179Z,14.70
2018-09-13T07:50:48.420Z,14.80
2018-09-13T07:52:51.605Z,14.90
2018-09-13T07:54:54.856Z,14.90
2018-09-13T07:56:58.036Z,14.90
2018-09-13T07:59:01.500Z,15.10
2018-09-13T08:01:04.911Z,15.10
2018-09-13T08:03:08.087Z,15.20
2018-09-13T08:05:11.676Z,15.40
2018-09-13T08:07:15.372Z,15.60
2018-09-13T08:09:18.542Z,15.90
2018-09-13T08:11:21.912Z,16.10
2018-09-13T08:13:25.460Z,16.30
2018-09-13T08:15:28.632Z,16.40
2018-09-13T08:17:31.886Z,16.40
2018-09-13T08:19:35.438Z,16.30
2018-09-13T08:21:38.757Z,16.20
2018-09-13T08:23:42.136Z,16.30
2018-09-13T08:25:45.661Z,16.30
2018-09-13T08:27:48.860Z,16.30
2018-09-13T08:29:52.528Z,16.30
2018-09-13T08:31:55.680Z,16.30
2018-09-13T08:33:58.853Z,16.40
2018-09-13T08:36:02.047Z,16.40
2018-09-13T08:38:05.580Z,16.50
2018-09-13T08:40:09.153Z,16.40
2018-09-13T08:42:12.516Z,16.50
2018-09-13T08:44:15.688Z,16.50
2018-09-13T08:46:20.813Z,16.50
2018-09-13T08:48:24.002Z,16.50
2018-09-13T08:50:27.184Z,16.40
2018-09-13T08:52:30.360Z,16.50
2018-09-13T08:54:33.786Z,16.60
2018-09-13T08:56:37.520Z,16.70
2018-09-13T08:58:41.024Z,16.70
2018-09-13T09:00:44.433Z,16.70
2018-09-13T09:02:47.739Z,16.70
2018-09-13T09:04:50.896Z,16.70
2018-09-13T09:06:54.076Z,16.70
2018-09-13T09:08:57.266Z,16.60
2018-09-13T09:11:00.700Z,16.60
2018-09-13T09:13:04.216Z,16.50
2018-09-13T09:15:07.408Z,16.60
2018-09-13T09:17:10.648Z,16.70
2018-09-13T09:19:14.096Z,16.70
2018-09-13T09:21:17.518Z,16.90
2018-09-13T09:23:20.688Z,17.00
2018-09-13T09:25:23.897Z,17.00
2018-09-13T09:27:27.911Z,17.10
2018-09-13T09:29:31.100Z,17.30
2018-09-13T09:31:34.488Z,17.30
2018-09-13T09:33:37.648Z,17.20
2018-09-13T09:35:41.120Z,17.30
2018-09-13T09:37:44.315Z,17.40
2018-09-13T09:39:47.643Z,17.40
2018-09-13T09:41:50.971Z,17.30
2018-09-13T09:43:54.160Z,17.20
2018-09-13T09:45:57.403Z,17.30
2018-09-13T09:48:00.640Z,17.40
2018-09-13T09:50:04.503Z,17.30
2018-09-13T09:52:08.415Z,17.10
2018-09-13T09:54:11.861Z,16.80
2018-09-13T09:56:15.391Z,16.60
2018-09-13T09:58:18.778Z,16.60
2018-09-13T10:00:27.749Z,16.50
2018-09-13T10:02:31.308Z,16.50
2018-09-13T10:04:34.494Z,16.60
2018-09-13T10:06:38.188Z,16.60
2018-09-13T10:08:41.733Z,16.60
2018-09-13T10:10:44.901Z,16.60
2018-09-13T10:12:48.073Z,16.60
2018-09-13T10:14:56.728Z,16.60
2018-09-13T10:17:05.824Z,16.80
2018-09-13T10:19:14.739Z,17.00
2018-09-13T10:21:23.497Z,17.20
2018-09-13T10:23:32.226Z,17.30
2018-09-13T10:25:41.064Z,17.40
2018-09-13T10:27:49.754Z,17.40
2018-09-13T10:29:58.392Z,17.40
2018-09-13T10:32:06.840Z,17.50
2018-09-13T10:34:16.323Z,17.50
2018-09-13T10:36:24.854Z,17.40
2018-09-13T10:38:33.508Z,17.50
2018-09-13T10:40:42.491Z,17.70
2018-09-13T10:42:51.374Z,17.80
2018-09-13T10:44:59.920Z,18.00
2018-09-13T10:47:09.140Z,18.10
2018-09-13T10:49:17.824Z,18.20
2018-09-13T10:51:26.316Z,18.30
2018-09-13T10:53:33.770Z,18.20
2018-09-13T10:55:37.010Z,18.20
2018-09-13T10:57:41.918Z,18.20
2018-09-13T10:59:46.510Z,18.10
2018-09-13T11:01:49.656Z,18.30
2018-09-13T11:03:53.447Z,18.50
2018-09-13T11:05:57.166Z,18.80
2018-09-13T11:08:00.788Z,18.70
2018-09-13T11:10:04.082Z,18.60
2018-09-13T11:12:08.488Z,18.70
2018-09-13T11:14:17.850Z,18.90
2018-09-13T11:16:21.569Z,18.50
2018-09-13T11:18:24.778Z,18.20
2018-09-13T11:20:27.936Z,18.10
2018-09-13T11:22:31.120Z,17.90
2018-09-13T11:24:34.373Z,17.90
2018-09-13T11:26:37.850Z,18.10
2018-09-13T11:28:41.704Z,18.20
2018-09-13T11:30:45.031Z,18.70
2018-09-13T11:32:48.318Z,19.50
2018-09-13T11:34:51.496Z,20.10
2018-09-13T11:36:54.695Z,19.90
2018-09-13T11:38:57.871Z,19.10
2018-09-13T11:41:01.459Z,18.70
2018-09-13T11:43:04.611Z,18.60
2018-09-13T11:45:08.447Z,19.10
2018-09-13T11:47:11.620Z,19.60
2018-09-13T11:49:14.812Z,19.40
2018-09-13T11:51:17.987Z,19.00
2018-09-13T11:53:21.137Z,18.40
2018-09-13T11:55:24.400Z,18.30
2018-09-13T11:57:27.828Z,18.20
2018-09-13T11:59:31.077Z,18.10
2018-09-13T12:01:34.233Z,18.10
2018-09-13T12:03:37.701Z,18.10
2018-09-13T12:05:40.892Z,18.10
2018-09-13T12:07:44.067Z,18.30
2018-09-13T12:09:47.312Z,18.40
2018-09-13T12:11:50.866Z,18.90
2018-09-13T12:13:54.042Z,19.10
2018-09-13T12:15:57.820Z,19.20
2018-09-13T12:18:01.294Z,20.00
2018-09-13T12:20:04.629Z,21.00
2018-09-13T12:22:07.840Z,21.80
2018-09-13T12:24:11.066Z,22.70
2018-09-13T12:26:14.240Z,23.20
2018-09-13T12:28:17.450Z,23.90
2018-09-13T12:30:20.652Z,24.10
2018-09-13T12:32:24.780Z,24.20
2018-09-13T12:34:28.041Z,23.80
2018-09-13T12:36:31.752Z,24.20
2018-09-13T12:38:35.269Z,24.50
2018-09-13T12:40:38.980Z,23.80
2018-09-13T12:42:42.156Z,23.40
2018-09-13T12:44:46.222Z,23.10
2018-09-13T12:46:49.412Z,22.60
2018-09-13T12:48:52.741Z,21.80
2018-09-13T12:50:55.924Z,21.00
2018-09-13T12:52:59.083Z,20.60
2018-09-13T12:55:02.250Z,20.60
2018-09-13T12:57:05.972Z,21.30
2018-09-13T12:59:09.296Z,21.40
2018-09-13T13:01:12.816Z,21.20
2018-09-13T13:03:16.248Z,20.90
2018-09-13T13:05:19.452Z,20.70
2018-09-13T13:07:22.618Z,20.60
2018-09-13T13:09:25.854Z,20.20
2018-09-13T13:11:29.020Z,20.10
2018-09-13T13:13:32.587Z,20.00
2018-09-13T13:15:36.283Z,20.00
2018-09-13T13:17:39.495Z,20.30
2018-09-13T13:19:43.349Z,20.60
2018-09-13T13:21:47.020Z,21.20
2018-09-13T13:23:50.184Z,21.40
2018-09-13T13:25:53.533Z,21.50
2018-09-13T13:27:57.124Z,21.90
2018-09-13T13:30:00.301Z,22.30
2018-09-13T13:32:04.344Z,22.30
2018-09-13T13:34:07.876Z,22.60
2018-09-13T13:36:11.040Z,22.70
2018-09-13T13:38:14.876Z,22.40
2018-09-13T13:40:18.296Z,21.80
2018-09-13T13:42:21.477Z,21.30
2018-09-13T13:44:24.837Z,21.00
2018-09-13T13:46:28.121Z,20.50
2018-09-13T13:48:31.352Z,20.40
2018-09-13T13:50:35.230Z,20.30
2018-09-13T13:52:38.404Z,20.30
2018-09-13T13:54:41.592Z,20.10
2018-09-13T13:56:44.824Z,19.80
2018-09-13T13:58:48.329Z,19.90
2018-09-13T14:00:51.513Z,20.10
2018-09-13T14:02:54.973Z,20.00
2018-09-13T14:04:58.140Z,19.80
2018-09-13T14:07:01.323Z,19.80
2018-09-13T14:09:08.903Z,20.00
2018-09-13T14:11:12.219Z,20.20
2018-09-13T14:13:15.386Z,20.60
2018-09-13T14:15:18.686Z,20.50
2018-09-13T14:17:21.852Z,20.20
2018-09-13T14:19:25.032Z,19.90
2018-09-13T14:21:28.239Z,19.80
2018-09-13T14:23:31.520Z,20.30
2018-09-13T14:25:34.812Z,21.00
2018-09-13T14:27:38.359Z,21.40
2018-09-13T14:29:41.566Z,21.90
2018-09-13T14:31:44.985Z,21.80
2018-09-13T14:33:48.196Z,21.30
2018-09-13T14:35:51.705Z,21.00
2018-09-13T14:37:54.884Z,20.90
2018-09-13T14:39:58.383Z,20.40
2018-09-13T14:42:01.684Z,20.00
2018-09-13T14:44:05.208Z,19.80
2018-09-13T14:46:08.452Z,19.60
2018-09-13T14:48:11.656Z,19.30
2018-09-13T14:50:14.860Z,19.10
2018-09-13T14:52:18.437Z,19.10
2018-09-13T14:54:21.988Z,19.10
2018-09-13T14:56:25.516Z,19.20
2018-09-13T14:58:28.708Z,19.30
2018-09-13T15:00:31.881Z,19.40
2018-09-13T15:02:35.384Z,19.50
2018-09-13T15:04:38.581Z,19.70
2018-09-13T15:06:41.775Z,19.80
2018-09-13T15:08:44.972Z,19.90
2018-09-13T15:10:48.168Z,20.00
2018-09-13T15:12:51.662Z,20.50
2018-09-13T15:14:55.130Z,20.70
2018-09-13T15:16:58.305Z,20.70
2018-09-13T15:19:01.496Z,20.60
2018-09-13T15:21:05.333Z,20.70
2018-09-13T15:23:08.710Z,20.60
2018-09-13T15:25:11.885Z,20.20
2018-09-13T15:27:15.071Z,20.10
2018-09-13T15:29:18.325Z,20.20
2018-09-13T15:31:21.737Z,20.70
2018-09-13T15:33:25.385Z,21.00
2018-09-13T15:35:28.837Z,21.30
2018-09-13T15:37:31.992Z,21.50
2018-09-13T15:39:35.948Z,21.60
2018-09-13T15:41:39.176Z,21.50
2018-09-13T15:43:42.548Z,21.30
2018-09-13T15:45:46.542Z,20.70
2018-09-13T15:47:49.711Z,20.10
2018-09-13T15:49:52.868Z,20.10
2018-09-13T15:51:56.388Z,20.80
2018-09-13T15:53:59.542Z,21.70
2018-09-13T15:56:02.702Z,22.50
2018-09-13T15:58:06.178Z,22.80
2018-09-13T16:00:09.784Z,22.60
2018-09-13T16:02:13.040Z,22.40
2018-09-13T16:04:16.217Z,22.00
2018-09-13T16:06:19.416Z,21.60
2018-09-13T16:08:22.596Z,21.40
2018-09-13T16:10:25.877Z,21.40
2018-09-13T16:12:29.505Z,21.40
2018-09-13T16:14:32.939Z,21.80
2018-09-13T16:16:36.444Z,22.40
2018-09-13T16:18:39.984Z,23.30
2018-09-13T16:20:43.742Z,24.10
2018-09-13T16:22:47.067Z,24.40
2018-09-13T16:24:50.449Z,24.90
2018-09-13T16:26:53.779Z,25.50
2018-09-13T16:28:56.984Z,25.50
2018-09-13T16:31:02.014Z,25.60
2018-09-13T16:33:05.897Z,25.80
2018-09-13T16:35:09.457Z,25.90
2018-09-13T16:37:12.938Z,25.40
2018-09-13T16:39:24.513Z,25.10
2018-09-13T16:41:33.220Z,24.30
2018-09-13T16:43:41.993Z,23.50
2018-09-13T16:45:45.184Z,23.00
2018-09-13T16:47:53.933Z,22.30
2018-09-13T16:49:58.668Z,21.90
2018-09-13T16:52:02.130Z,21.00
2018-09-13T16:54:05.967Z,20.40
2018-09-13T16:56:09.256Z,20.20
2018-09-13T16:58:12.830Z,19.80
2018-09-13T17:00:15.996Z,19.60
2018-09-13T17:02:19.329Z,19.50
2018-09-13T17:04:22.508Z,19.30
2018-09-13T17:06:25.674Z,19.30
2018-09-13T17:08:28.839Z,19.30
2018-09-13T17:10:32.560Z,19.30
2018-09-13T17:12:35.732Z,19.30
2018-09-13T17:14:38.896Z,19.40
2018-09-13T17:16:42.325Z,19.50
2018-09-13T17:18:45.590Z,19.40
2018-09-13T17:20:49.060Z,19.20
2018-09-13T17:22:52.556Z,19.00
2018-09-13T17:24:55.993Z,18.90
2018-09-13T17:26:59.323Z,18.70
2018-09-13T17:29:03.236Z,18.40
2018-09-13T17:31:06.595Z,18.10
2018-09-13T17:33:10.221Z,18.10
2018-09-13T17:35:13.768Z,17.90
2018-09-13T17:37:16.944Z,17.70
2018-09-13T17:39:20.216Z,17.60
2018-09-13T17:41:24.375Z,17.50
2018-09-13T17:43:27.597Z,17.40
2018-09-13T17:45:30.794Z,17.50
2018-09-13T17:47:34.245Z,17.50
2018-09-13T17:49:37.468Z,17.40
2018-09-13T17:51:40.979Z,17.20
2018-09-13T17:53:44.208Z,17.30
2018-09-13T17:55:47.454Z,17.10
2018-09-13T17:57:50.816Z,17.10
2018-09-13T17:59:54.004Z,17.00
2018-09-13T18:01:57.192Z,17.00
2018-09-13T18:04:00.420Z,17.00
2018-09-13T18:06:04.252Z,16.90
2018-09-13T18:08:07.460Z,16.70
2018-09-13T18:10:11.339Z,16.60
2018-09-13T18:12:15.037Z,16.50
2018-09-13T18:14:18.497Z,16.50
2018-09-13T18:16:21.660Z,16.30
2018-09-13T18:18:25.236Z,16.40
2018-09-13T18:20:28.420Z,16.30
2018-09-13T18:22:31.611Z,16.20
2018-09-13T18:24:34.826Z,16.10
2018-09-13T18:26:38.237Z,16.10
2018-09-13T18:28:41.420Z,16.00
2018-09-13T18:30:45.596Z,16.00
2018-09-13T18:32:48.929Z,15.90
2018-09-13T18:34:52.114Z,15.80
2018-09-13T18:36:55.860Z,15.80
2018-09-13T18:38:59.253Z,15.70
2018-09-13T18:41:02.517Z,15.70
2018-09-13T18:43:06.384Z,15.60
2018-09-13T18:45:09.937Z,15.70
2018-09-13T18:47:13.309Z,15.60
2018-09-13T18:49:16.568Z,15.60
2018-09-13T18:51:19.802Z,15.70
2018-09-13T18:53:23.117Z,15.70
2018-09-13T18:55:26.294Z,15.70
2018-09-13T18:57:29.988Z,15.70
2018-09-13T18:59:33.221Z,15.70
2018-09-13T19:01:36.580Z,15.60
2018-09-13T19:03:40.084Z,15.60
2018-09-13T19:05:43.248Z,15.50
2018-09-13T19:07:46.764Z,15.30
2018-09-13T19:09:50.656Z,15.30
2018-09-13T19:11:53.857Z,15.40
2018-09-13T19:13:57.212Z,15.30
2018-09-13T19:16:00.408Z,15.20
2018-09-13T19:18:04.454Z,15.00
2018-09-13T19:20:07.629Z,15.00
2018-09-13T19:22:10.817Z,15.00
2018-09-13T19:24:14.219Z,15.00
2018-09-13T19:26:17.566Z,14.80
2018-09-13T19:28:20.737Z,14.90
2018-09-13T19:30:24.285Z,14.90
2018-09-13T19:32:27.840Z,15.00
2018-09-13T19:34:30.995Z,14.90
2018-09-13T19:36:34.209Z,14.80
2018-09-13T19:38:37.388Z,14.70
2018-09-13T19:40:40.781Z,14.60
2018-09-13T19:42:44.312Z,14.60
2018-09-13T19:44:47.495Z,14.50
2018-09-13T19:46:50.767Z,14.50
2018-09-13T19:48:54.511Z,14.50
2018-09-13T19:50:57.722Z,14.60
2018-09-13T19:53:01.060Z,14.60
2018-09-13T19:55:05.001Z,14.60
2018-09-13T19:57:08.166Z,14.50
2018-09-13T19:59:11.536Z,14.50
2018-09-13T20:01:14.740Z,14.50
2018-09-13T20:03:17.949Z,14.50
2018-09-13T20:05:21.127Z,14.30
2018-09-13T20:07:24.616Z,14.40
2018-09-13T20:09:27.783Z,14.50
2018-09-13T20:11:31.014Z,14.50
2018-09-13T20:13:34.898Z,14.40
2018-09-13T20:15:38.060Z,14.30
2018-09-13T20:17:41.237Z,14.30
2018-09-13T20:19:44.760Z,14.20
2018-09-13T20:21:48.296Z,14.10
2018-09-13T20:23:51.472Z,14.00
2018-09-13T20:25:54.640Z,13.90
2018-09-13T20:27:57.830Z,13.80
2018-09-13T20:30:01.036Z,13.70
2018-09-13T20:32:04.257Z,13.60
2018-09-13T20:34:07.428Z,13.60
2018-09-13T20:36:10.985Z,13.60
2018-09-13T20:38:14.145Z,13.60
2018-09-13T20:40:17.320Z,13.70
2018-09-13T20:42:20.552Z,13.80
2018-09-13T20:44:23.754Z,13.80
2018-09-13T20:46:26.936Z,13.70
2018-09-13T20:48:30.186Z,13.60
2018-09-13T20:50:33.566Z,13.70
2018-09-13T20:52:36.773Z,13.70
2018-09-13T20:54:40.239Z,13.70
2018-09-13T20:56:43.595Z,13.60
2018-09-13T20:58:47.297Z,13.60
2018-09-13T21:00:50.931Z,13.50
2018-09-13T21:02:54.260Z,13.60
2018-09-13T21:04:57.544Z,13.60
2018-09-13T21:07:00.977Z,13.60
2018-09-13T21:09:05.876Z,13.60
2018-09-13T21:11:09.214Z,13.60
2018-09-13T21:13:12.660Z,13.50
2018-09-13T21:15:16.133Z,13.50
2018-09-13T21:17:19.649Z,13.60
2018-09-13T21:19:22.915Z,13.60
2018-09-13T21:21:26.140Z,13.60
2018-09-13T21:23:29.393Z,13.60
2018-09-13T21:25:32.785Z,13.60
2018-09-13T21:27:35.942Z,13.60
2018-09-13T21:29:39.539Z,13.60
2018-09-13T21:31:43.002Z,13.50
2018-09-13T21:33:46.161Z,13.50
2018-09-13T21:35:49.356Z,13.50
2018-09-13T21:37:52.527Z,13.40
2018-09-13T21:39:55.697Z,13.40
2018-09-13T21:41:59.060Z,13.40
2018-09-13T21:44:02.248Z,13.40
2018-09-13T21:46:05.608Z,13.40
2018-09-13T21:48:09.101Z,13.50
2018-09-13T21:50:12.308Z,13.40
2018-09-13T21:52:15.484Z,13.30
2018-09-13T21:54:18.689Z,13.20
2018-09-13T21:56:21.968Z,13.20
2018-09-13T21:58:25.156Z,13.10
2018-09-13T22:00:28.358Z,13.10
2018-09-13T22:02:31.547Z,13.20
2018-09-13T22:04:34.713Z,13.30
2018-09-13T22:06:37.916Z,13.30
2018-09-13T22:08:41.108Z,13.30
2018-09-13T22:10:44.283Z,13.40
2018-09-13T22:12:47.880Z,13.40
2018-09-13T22:14:51.064Z,13.40
2018-09-13T22:16:54.245Z,13.30
2018-09-13T22:18:57.644Z,13.30
2018-09-13T22:21:00.836Z,13.30
2018-09-13T22:23:04.343Z,13.30
2018-09-13T22:25:07.877Z,13.20
2018-09-13T22:27:11.056Z,13.20
2018-09-13T22:29:14.337Z,13.20
2018-09-13T22:31:18.032Z,13.30
2018-09-13T22:33:21.811Z,13.40
2018-09-13T22:35:25.007Z,13.40
2018-09-13T22:37:28.370Z,13.40
2018-09-13T22:39:31.581Z,13.40
2018-09-13T22:41:34.760Z,13.40
2018-09-13T22:43:53.378Z,13.30
2018-09-13T22:45:56.598Z,13.30
2018-09-13T22:48:00.140Z,13.10
2018-09-13T22:50:03.684Z,12.80
2018-09-13T22:52:07.501Z,12.60
2018-09-13T22:54:10.688Z,12.60
2018-09-13T22:56:14.504Z,12.60
2018-09-13T22:58:17.685Z,12.30
2018-09-13T23:00:20.876Z,12.40
2018-09-13T23:02:24.435Z,12.40
2018-09-13T23:04:27.705Z,12.30
2018-09-13T23:06:30.892Z,12.00
2018-09-13T23:08:34.098Z,11.90
2018-09-13T23:10:37.255Z,11.90
2018-09-13T23:12:40.421Z,11.90
2018-09-13T23:14:43.613Z,12.00
2018-09-13T23:16:49.579Z,12.10
2018-09-13T23:18:50.367Z,12.10
2018-09-13T23:20:53.596Z,11.90
2018-09-13T23:22:56.760Z,11.80
2018-09-13T23:24:59.960Z,11.80
2018-09-13T23:27:03.180Z,11.70
2018-09-13T23:29:06.675Z,11.90
2018-09-13T23:31:10.102Z,11.90
2018-09-13T23:33:13.785Z,12.00
2018-09-13T23:35:17.012Z,12.00
2018-09-13T23:37:20.215Z,12.00
2018-09-13T23:39:23.602Z,12.00
2018-09-13T23:41:26.802Z,12.00
2018-09-13T23:43:29.969Z,12.00
2018-09-13T23:45:33.171Z,12.10
2018-09-13T23:47:36.569Z,12.10
2018-09-13T23:49:39.764Z,12.10
2018-09-13T23:51:43.300Z,11.90
2018-09-13T23:53:46.480Z,11.70
2018-09-13T23:55:49.838Z,11.70
2018-09-13T23:57:53.372Z,11.50
2018-09-13T23:59:56.604Z,11.70
